Time;durP1;ratioP1;P1;durP2;ratioP2;P2;SDS_P1;SDS_P2;PMS_P1;PMS_P2;Temp;Humidity;BMP_temperature;BMP_pressure;BME280_temperature;BME280_humidity;BME280_pressure;Samples;Min_cycle;Max_cycle;Signal;HPM_P1;HPM_P2
2022/02/23 00:02:17;;;;;;;2.50;1.60;;;;;;;7.49;100.00;98848.28;5037969;28;20125;-55
2022/02/23 00:04:42;;;;;;;4.60;2.83;;;;;;;7.47;100.00;98864.44;5030947;28;20061;-55
2022/02/23 00:07:08;;;;;;;2.93;1.53;;;;;;;7.46;100.00;98852.53;5028034;28;20047;-57
2022/02/23 00:09:33;;;;;;;2.17;1.50;;;;;;;7.50;100.00;98847.44;5029217;28;20049;-58
2022/02/23 00:11:59;;;;;;;1.77;1.10;;;;;;;7.56;100.00;98849.09;5030043;28;20566;-56
2022/02/23 00:14:24;;;;;;;2.97;1.10;;;;;;;7.50;100.00;98839.78;5028259;28;20048;-58
2022/02/23 00:16:49;;;;;;;2.63;0.97;;;;;;;7.62;99.70;98841.44;5028854;28;20041;-58
2022/02/23 00:19:15;;;;;;;3.43;1.67;;;;;;;7.59;100.00;98838.91;5028698;28;20096;-57
2022/02/23 00:21:40;;;;;;;1.97;1.30;;;;;;;7.53;100.00;98833.81;5029258;28;20037;-57
2022/02/23 00:24:06;;;;;;;0.80;0.80;;;;;;;7.53;100.00;98826.16;5028224;28;20030;-57
2022/02/23 00:26:34;;;;;;;1.70;1.40;;;;;;;7.52;100.00;98830.41;5028735;28;20045;-57
2022/02/23 00:29:00;;;;;;;1.63;1.53;;;;;;;7.61;99.44;98826.97;5030114;28;20037;-56
2022/02/23 00:31:25;;;;;;;1.50;1.40;;;;;;;7.65;98.71;98818.44;5030147;28;20041;-57
2022/02/23 00:33:51;;;;;;;1.30;1.10;;;;;;;7.62;99.07;98814.22;5030517;28;20034;-59
2022/02/23 00:36:16;;;;;;;1.67;1.50;;;;;;;7.70;97.11;98809.06;5028948;28;20450;-59
2022/02/23 00:38:42;;;;;;;1.37;1.00;;;;;;;7.69;96.94;98809.91;5033613;28;20112;-58
2022/02/23 00:41:07;;;;;;;3.23;1.10;;;;;;;7.67;98.18;98809.94;5034450;28;20064;-57
2022/02/23 00:43:33;;;;;;;1.77;1.17;;;;;;;7.63;98.55;98809.97;5032120;28;20114;-56
2022/02/23 00:45:58;;;;;;;2.73;1.00;;;;;;;7.48;99.27;98793.00;5031194;28;20559;-55
2022/02/23 00:48:23;;;;;;;1.73;1.13;;;;;;;7.59;98.75;98803.19;5032043;28;20060;-58
2022/02/23 00:50:49;;;;;;;1.40;1.20;;;;;;;7.56;98.58;98787.88;5033759;28;20033;-57
2022/02/23 00:53:14;;;;;;;2.93;1.43;;;;;;;7.50;98.60;98782.81;5031073;28;20051;-56
2022/02/23 00:55:40;;;;;;;1.27;1.17;;;;;;;7.52;98.27;98781.09;5030042;28;20054;-57
2022/02/23 00:58:05;;;;;;;3.47;1.43;;;;;;;7.49;98.30;98773.44;5033744;28;20037;-56
2022/02/23 01:00:30;;;;;;;2.03;1.30;;;;;;;7.47;100.00;98782.84;5034353;28;20141;-57
2022/02/23 01:02:56;;;;;;;2.80;1.17;;;;;;;7.40;100.00;98774.34;5029171;28;20045;-56
2022/02/23 01:05:22;;;;;;;1.50;0.93;;;;;;;7.45;99.94;98797.28;5032218;28;20353;-54
2022/02/23 01:07:47;;;;;;;1.40;1.27;;;;;;;7.35;100.00;98792.19;5034522;28;20726;-57
2022/02/23 01:10:13;;;;;;;2.03;0.97;;;;;;;7.49;99.31;98791.31;5030319;28;20041;-60
2022/02/23 01:12:38;;;;;;;1.20;0.80;;;;;;;7.54;99.49;98789.59;5030769;28;20537;-58
2022/02/23 01:15:06;;;;;;;2.53;1.43;;;;;;;7.43;100.00;98770.91;5032538;28;20083;-57
2022/02/23 01:17:31;;;;;;;2.20;0.93;;;;;;;7.43;100.00;98789.63;5032861;28;20051;-56
2022/02/23 01:19:56;;;;;;;2.63;1.27;;;;;;;7.53;100.00;98775.97;5033605;28;20686;-57
2022/02/23 01:22:22;;;;;;;2.17;1.97;;;;;;;7.55;100.00;98778.53;5032543;28;20120;-55
2022/02/23 01:24:47;;;;;;;2.20;1.20;;;;;;;7.65;100.00;98767.41;5030526;28;20091;-58
2022/02/23 01:27:12;;;;;;;2.07;1.80;;;;;;;7.68;100.00;98768.25;5033823;28;20037;-57
2022/02/23 01:29:38;;;;;;;1.67;1.57;;;;;;;7.74;100.00;98775.03;5032359;28;20109;-55
2022/02/23 01:32:04;;;;;;;2.50;1.27;;;;;;;7.82;100.00;98771.56;5031148;28;20045;-57
2022/02/23 01:34:29;;;;;;;1.43;1.03;;;;;;;7.77;100.00;98757.13;5032237;28;20128;-58
2022/02/23 01:36:54;;;;;;;3.57;1.70;;;;;;;7.75;100.00;98772.47;5032030;28;20057;-56
2022/02/23 01:39:20;;;;;;;3.50;2.10;;;;;;;7.78;100.00;98759.69;5032611;28;20078;-57
2022/02/23 01:41:45;;;;;;;4.37;1.77;;;;;;;7.90;99.75;98761.31;5029427;28;20431;-56
2022/02/23 01:44:11;;;;;;;1.63;1.13;;;;;;;7.94;98.86;98754.47;5032211;28;20037;-58
2022/02/23 01:46:36;;;;;;;2.63;1.10;;;;;;;7.99;99.29;98748.50;5033506;28;20034;-58
2022/02/23 01:49:02;;;;;;;2.00;1.37;;;;;;;8.00;99.22;98739.13;5033707;28;20037;-57
2022/02/23 01:51:28;;;;;;;2.70;1.30;;;;;;;8.05;97.66;98740.81;5032240;28;20029;-55
2022/02/23 01:53:54;;;;;;;1.47;0.87;;;;;;;8.07;97.97;98739.06;5036212;28;20521;-56
2022/02/23 01:56:20;;;;;;;1.47;1.03;;;;;;;8.10;97.57;98728.84;5034100;28;20037;-54
2022/02/23 01:58:46;;;;;;;3.23;1.20;;;;;;;8.10;97.55;98739.06;5033433;28;20057;-58
2022/02/23 02:01:12;;;;;;;1.10;0.87;;;;;;;8.06;97.29;98723.78;5032234;28;20040;-57
2022/02/23 02:03:37;;;;;;;2.10;0.77;;;;;;;8.07;97.85;98733.97;5032721;28;20440;-55
2022/02/23 02:06:03;;;;;;;1.17;0.97;;;;;;;8.09;98.42;98732.25;5034853;28;20037;-58
2022/02/23 02:08:28;;;;;;;1.40;1.07;;;;;;;8.09;98.73;98729.72;5034115;28;20144;-57
2022/02/23 02:10:53;;;;;;;3.07;1.00;;;;;;;8.14;98.68;98725.41;5029904;28;20063;-57
2022/02/23 02:13:19;;;;;;;1.07;0.93;;;;;;;8.14;98.33;98729.69;5033597;28;20033;-57
2022/02/23 02:15:44;;;;;;;1.67;1.57;;;;;;;8.19;98.97;98725.34;5034356;28;20060;-53
2022/02/23 02:18:10;;;;;;;1.57;1.17;;;;;;;8.23;98.39;98732.16;5030272;28;20179;-56
2022/02/23 02:20:35;;;;;;;2.77;0.90;;;;;;;8.25;98.94;98722.75;5032388;28;20802;-55
2022/02/23 02:23:00;;;;;;;2.80;1.13;;;;;;;8.23;99.51;98721.94;5033106;28;20045;-58
2022/02/23 02:25:26;;;;;;;2.60;1.10;;;;;;;8.23;100.00;98727.88;5033907;28;20132;-58
2022/02/23 02:27:51;;;;;;;1.40;1.30;;;;;;;8.20;100.00;98740.66;5030658;28;20451;-57
2022/02/23 02:30:17;;;;;;;1.53;1.23;;;;;;;8.25;100.00;98721.06;5034049;28;20037;-55
2022/02/23 02:32:43;;;;;;;0.93;0.80;;;;;;;8.16;100.00;98715.16;5036532;28;20048;-56
2022/02/23 02:35:09;;;;;;;1.90;1.07;;;;;;;8.16;100.00;98727.94;5032480;28;20491;-58
2022/02/23 02:37:34;;;;;;;3.50;2.70;;;;;;;8.15;100.00;98714.31;5033055;28;20075;-58
2022/02/23 02:40:00;;;;;;;1.47;1.30;;;;;;;8.11;100.00;98716.91;5035517;28;20136;-58
2022/02/23 02:42:25;;;;;;;3.60;1.07;;;;;;;8.12;100.00;98698.19;5034339;28;20041;-58
2022/02/23 02:44:51;;;;;;;1.90;1.17;;;;;;;8.09;100.00;98703.31;5034428;28;20785;-57
2022/02/23 02:47:19;;;;;;;1.30;1.20;;;;;;;8.13;100.00;98699.88;5031684;28;20042;-55
2022/02/23 02:49:44;;;;;;;1.43;1.17;;;;;;;8.09;100.00;98699.06;5032595;28;20083;-54
2022/02/23 02:52:10;;;;;;;1.43;1.20;;;;;;;8.15;100.00;98710.91;5032598;28;20045;-56
2022/02/23 02:54:36;;;;;;;1.60;0.90;;;;;;;8.20;100.00;98721.94;5033187;28;20099;-57
2022/02/23 02:57:03;;;;;;;1.13;1.03;;;;;;;8.14;100.00;98730.53;5032733;28;20120;-58
2022/02/23 02:59:28;;;;;;;2.10;1.47;;;;;;;8.10;100.00;98730.56;5030804;28;20065;-58
2022/02/23 03:01:53;;;;;;;0.97;0.97;;;;;;;8.11;100.00;98730.53;5032703;28;20191;-57
2022/02/23 03:04:19;;;;;;;1.53;1.43;;;;;;;7.97;100.00;98717.03;5035033;28;20040;-57
2022/02/23 03:06:44;;;;;;;6.03;1.20;;;;;;;7.98;100.00;98735.72;5041038;28;20239;-56
2022/02/23 03:09:10;;;;;;;1.10;1.00;;;;;;;7.96;100.00;98717.03;5033288;28;20046;-57
2022/02/23 03:11:35;;;;;;;3.17;1.53;;;;;;;7.80;100.00;98739.28;5033847;28;20128;-58
2022/02/23 03:14:01;;;;;;;4.53;2.73;;;;;;;7.59;100.00;98726.66;5034631;28;20041;-57
2022/02/23 03:16:26;;;;;;;3.73;2.10;;;;;;;7.35;100.00;98714.84;5031693;28;20502;-58
2022/02/23 03:18:52;;;;;;;4.93;3.87;;;;;;;7.20;100.00;98720.03;5031942;28;20090;-57
2022/02/23 03:21:18;;;;;;;4.90;4.60;;;;;;;7.10;100.00;98726.00;5034197;28;20075;-59
2022/02/23 03:23:43;;;;;;;6.27;5.77;;;;;;;7.07;100.00;98714.13;5032369;28;20033;-59
2022/02/23 03:26:11;;;;;;;7.67;7.23;;;;;;;7.06;100.00;98725.19;5029807;28;20759;-59
2022/02/23 03:28:37;;;;;;;2.73;2.53;;;;;;;7.04;100.00;98724.34;5030540;28;20096;-58
2022/02/23 03:31:04;;;;;;;8.27;7.60;;;;;;;7.16;100.00;98724.28;5031631;28;20048;-58
2022/02/23 03:33:29;;;;;;;7.63;7.23;;;;;;;7.21;100.00;98714.91;5031049;28;20445;-56
2022/02/23 03:35:55;;;;;;;9.83;9.33;;;;;;;7.15;100.00;98732.78;5032849;28;20053;-58
2022/02/23 03:38:20;;;;;;;5.30;4.90;;;;;;;7.26;100.00;98723.38;5033679;28;20038;-56
2022/02/23 03:40:46;;;;;;;12.00;11.27;;;;;;;7.30;100.00;98719.97;5036690;28;20143;-59
2022/02/23 03:43:16;;;;;;;7.63;7.13;;;;;;;7.32;100.00;98713.16;5030483;28;20041;-56
2022/02/23 03:45:41;;;;;;;6.23;5.90;;;;;;;7.49;100.00;98712.22;5032706;28;20033;-57
2022/02/23 03:48:07;;;;;;;7.57;7.20;;;;;;;7.52;100.00;98730.91;5031837;28;20524;-57
2022/02/23 03:50:32;;;;;;;8.23;7.83;;;;;;;7.49;100.00;98728.38;5032166;28;20033;-58
2022/02/23 03:52:57;;;;;;;6.70;6.37;;;;;;;7.63;100.00;98738.53;5030863;28;20029;-56
2022/02/23 03:55:23;;;;;;;5.13;4.77;;;;;;;7.70;100.00;98740.16;5029429;28;20426;-56
2022/02/23 03:57:48;;;;;;;14.90;14.23;;;;;;;7.58;100.00;98720.69;5031157;28;20041;-57
2022/02/23 04:00:15;;;;;;;12.33;11.77;;;;;;;7.60;100.00;98724.06;5034273;28;20482;-58
2022/02/23 04:02:41;;;;;;;2.47;2.37;;;;;;;7.53;100.00;98724.97;5029724;28;20060;-57
2022/02/23 04:05:07;;;;;;;5.97;5.67;;;;;;;7.50;100.00;98719.88;5030527;28;20068;-58
2022/02/23 04:07:34;;;;;;;3.80;3.60;;;;;;;7.64;100.00;98725.75;5032189;28;20053;-57
2022/02/23 04:09:59;;;;;;;3.87;3.57;;;;;;;7.63;100.00;98713.88;5034152;28;20052;-59
2022/02/23 04:12:25;;;;;;;10.50;9.90;;;;;;;7.69;100.00;98743.56;5033156;28;20403;-58
2022/02/23 04:14:50;;;;;;;6.97;6.57;;;;;;;7.69;100.00;98751.22;5032147;28;20621;-57
2022/02/23 04:17:16;;;;;;;8.30;7.90;;;;;;;7.67;100.00;98719.78;5034396;28;20938;-57
2022/02/23 04:19:41;;;;;;;2.27;1.43;;;;;;;7.76;100.00;98704.44;5035712;28;20033;-59
2022/02/23 04:22:07;;;;;;;2.80;2.40;;;;;;;7.66;100.00;98725.75;5033649;28;20134;-58
2022/02/23 04:24:33;;;;;;;1.90;1.77;;;;;;;7.64;100.00;98738.50;5032588;28;20128;-57
2022/02/23 04:27:00;;;;;;;2.40;2.30;;;;;;;7.63;100.00;98739.38;5035793;28;20123;-58
2022/02/23 04:29:29;;;;;;;4.90;2.77;;;;;;;7.64;100.00;98741.03;5036429;28;20053;-58
2022/02/23 04:31:54;;;;;;;3.50;3.30;;;;;;;7.70;100.00;98752.94;5034828;28;20403;-58
2022/02/23 04:34:20;;;;;;;23.17;21.93;;;;;;;7.70;100.00;98758.03;5032624;28;20048;-57
2022/02/23 04:36:46;;;;;;;24.60;23.47;;;;;;;7.69;100.00;98743.56;5035195;28;20101;-57
2022/02/23 04:39:12;;;;;;;10.37;9.77;;;;;;;7.58;100.00;98751.31;5035381;28;20064;-55
2022/02/23 04:41:38;;;;;;;10.37;9.87;;;;;;;7.59;100.00;98744.50;5031452;28;20132;-54
2022/02/23 04:44:04;;;;;;;8.83;8.33;;;;;;;7.50;100.00;98773.47;5034755;28;20087;-57
2022/02/23 04:46:30;;;;;;;13.37;12.77;;;;;;;7.55;100.00;98758.97;5036162;28;20044;-57
2022/02/23 04:48:55;;;;;;;8.97;8.57;;;;;;;7.57;100.00;98766.59;5036873;28;20038;-57
2022/02/23 04:51:23;;;;;;;3.70;3.43;;;;;;;7.54;100.00;98758.97;5033634;28;20045;-56
2022/02/23 04:53:49;;;;;;;5.00;4.60;;;;;;;7.54;100.00;98776.84;5035029;28;20359;-57
2022/02/23 04:56:14;;;;;;;2.67;2.37;;;;;;;7.61;100.00;98756.38;5032749;28;20116;-58
2022/02/23 04:58:40;;;;;;;4.13;3.73;;;;;;;7.65;100.00;98781.03;5032855;28;20144;-56
2022/02/23 05:01:05;;;;;;;3.83;3.53;;;;;;;7.55;100.00;98779.38;5032762;28;20175;-56
2022/02/23 05:03:34;;;;;;;1.47;1.37;;;;;;;7.45;100.00;98776.88;5033857;28;20087;-59
2022/02/23 05:05:59;;;;;;;7.10;6.73;;;;;;;7.28;100.00;98788.00;5035015;28;20044;-57
2022/02/23 05:08:26;;;;;;;3.77;3.47;;;;;;;7.12;100.00;98804.19;5034146;28;20060;-58
2022/02/23 05:10:52;;;;;;;9.37;8.90;;;;;;;7.15;100.00;98801.63;5030531;28;20068;-59
2022/02/23 05:13:18;;;;;;;44.50;42.50;;;;;;;7.20;100.00;98797.38;5034034;28;20033;-58
2022/02/23 05:15:44;;;;;;;12.53;11.90;;;;;;;7.21;100.00;98818.63;5034084;28;20060;-57
2022/02/23 05:18:09;;;;;;;10.87;10.27;;;;;;;7.14;100.00;98799.91;5032630;28;20044;-57
2022/02/23 05:20:36;;;;;;;61.30;58.30;;;;;;;7.31;100.00;98816.03;5033365;28;20049;-57
2022/02/23 05:23:02;;;;;;;8.17;7.80;;;;;;;7.33;100.00;98828.78;5035182;28;20112;-56
2022/02/23 05:25:27;;;;;;;24.30;22.97;;;;;;;7.33;100.00;98810.94;5032914;28;20449;-57
2022/02/23 05:27:53;;;;;;;41.33;39.23;;;;;;;7.33;100.00;98827.09;5031413;28;20067;-55
2022/02/23 05:30:19;;;;;;;14.97;14.17;;;;;;;7.37;100.00;98819.41;5032072;28;20043;-56
2022/02/23 05:32:45;;;;;;;15.83;14.90;;;;;;;7.43;100.00;98817.69;5033736;28;20044;-56
2022/02/23 05:35:11;;;;;;;166.93;156.57;;;;;;;7.48;100.00;98830.41;5033529;28;20064;-56
2022/02/23 05:37:37;;;;;;;92.13;87.30;;;;;;;7.58;100.00;98832.09;5030479;28;20095;-58
2022/02/23 05:40:05;;;;;;;127.53;120.50;;;;;;;7.50;100.00;98832.13;5033233;28;20401;-58
2022/02/23 05:42:30;;;;;;;126.47;119.50;;;;;;;7.48;100.00;98863.56;5034360;28;20103;-57
2022/02/23 05:44:56;;;;;;;124.57;117.63;;;;;;;7.53;100.00;98856.75;5034002;28;20037;-55
2022/02/23 05:47:21;;;;;;;94.00;89.10;;;;;;;7.39;100.00;98887.41;5031737;28;20723;-57
2022/02/23 05:49:47;;;;;;;96.47;91.33;;;;;;;7.33;100.00;98867.88;5034107;28;20030;-55
2022/02/23 05:52:14;;;;;;;110.90;105.10;;;;;;;7.33;100.00;98882.34;5033909;28;20045;-55
2022/02/23 05:54:40;;;;;;;180.53;169.50;;;;;;;7.33;100.00;98895.94;5032045;28;20048;-57
2022/02/23 05:57:05;;;;;;;110.77;104.97;;;;;;;7.43;100.00;98895.91;5032370;28;20932;-57
2022/02/23 05:59:31;;;;;;;117.07;110.70;;;;;;;7.31;100.00;98895.06;5032352;28;20037;-57
2022/02/23 06:01:56;;;;;;;96.80;91.87;;;;;;;7.23;100.00;98914.66;5035810;28;20048;-56
2022/02/23 06:04:21;;;;;;;123.23;116.57;;;;;;;7.17;100.00;98908.72;5031558;28;20101;-56
2022/02/23 06:06:47;;;;;;;83.73;79.60;;;;;;;7.25;100.00;98918.06;5031869;28;20124;-57
2022/02/23 06:09:12;;;;;;;114.73;108.73;;;;;;;7.31;100.00;98950.31;5033384;28;20519;-58
2022/02/23 06:11:38;;;;;;;106.20;100.50;;;;;;;7.33;100.00;98949.50;5032352;28;20049;-58
2022/02/23 06:14:05;;;;;;;88.10;83.80;;;;;;;7.29;100.00;98950.34;5033003;28;20045;-58
2022/02/23 06:16:31;;;;;;;66.33;63.17;;;;;;;7.22;100.00;98958.84;5032913;28;20900;-58
2022/02/23 06:18:57;;;;;;;56.77;54.03;;;;;;;7.30;100.00;98957.13;5032401;28;20045;-58
2022/02/23 06:21:24;;;;;;;129.63;122.57;;;;;;;7.38;100.00;98981.78;5033679;28;20056;-57
2022/02/23 06:23:51;;;;;;;234.07;218.67;;;;;;;7.39;100.00;98986.03;5030530;28;20094;-56
2022/02/23 06:26:17;;;;;;;190.43;178.93;;;;;;;7.49;100.00;98987.72;5031760;28;20025;-58
2022/02/23 06:28:43;;;;;;;1.40;1.30;;;;;;;7.53;100.00;98987.72;5033525;28;20052;-56
2022/02/23 06:31:09;;;;;;;1.20;1.10;;;;;;;7.67;100.00;98991.13;5033492;28;20136;-57
2022/02/23 06:33:35;;;;;;;1.33;1.23;;;;;;;7.77;100.00;98997.03;5040565;28;20084;-58
2022/02/23 06:36:00;;;;;;;2.67;1.30;;;;;;;7.89;100.00;98997.03;5031820;28;20227;-56
2022/02/23 06:38:26;;;;;;;1.23;1.13;;;;;;;7.84;100.00;99008.94;5033464;28;20049;-58
2022/02/23 06:40:51;;;;;;;2.13;1.57;;;;;;;7.88;100.00;98999.56;5033296;28;20049;-56
2022/02/23 06:43:19;;;;;;;2.27;1.50;;;;;;;7.86;100.00;99032.75;5031621;28;20827;-57
2022/02/23 06:45:50;;;;;;;0.90;0.90;;;;;;;7.91;100.00;99027.63;5030439;28;20395;-57
2022/02/23 06:48:17;;;;;;;3.70;1.37;;;;;;;7.85;100.00;99027.66;5033440;28;20056;-56
2022/02/23 06:50:44;;;;;;;0.83;0.83;;;;;;;7.90;100.00;99042.09;5032891;28;20037;-53
2022/02/23 06:53:12;;;;;;;0.90;0.80;;;;;;;7.85;100.00;99051.47;5031767;28;20155;-54
2022/02/23 06:55:38;;;;;;;1.17;0.80;;;;;;;7.83;100.00;99050.63;5030428;28;20103;-55
2022/02/23 06:58:04;;;;;;;0.80;0.80;;;;;;;7.72;100.00;99070.22;5031882;28;20461;-58
2022/02/23 07:00:29;;;;;;;0.97;0.87;;;;;;;7.59;100.00;99096.59;5031299;28;20065;-56
2022/02/23 07:02:55;;;;;;;1.50;0.93;;;;;;;7.36;100.00;99091.44;5030249;28;20042;-57
2022/02/23 07:05:21;;;;;;;2.40;0.83;;;;;;;7.11;100.00;99105.00;5031379;28;20044;-56
2022/02/23 07:07:47;;;;;;;2.20;1.17;;;;;;;7.03;100.00;99114.34;5032850;28;20806;-54
2022/02/23 07:10:20;;;;;;;219.40;203.70;;;;;;;6.81;100.00;99144.00;5035318;28;20056;-58
2022/02/23 07:12:45;;;;;;;134.17;125.90;;;;;;;6.68;100.00;99160.91;5031969;28;20064;-58
2022/02/23 07:15:11;;;;;;;150.13;140.07;;;;;;;6.64;100.00;99173.63;5035801;28;20992;-59
2022/02/23 07:17:36;;;;;;;61.07;58.03;;;;;;;6.52;100.00;99169.34;5035584;28;20124;-59
2022/02/23 07:20:02;;;;;;;65.43;62.03;;;;;;;6.57;100.00;99192.28;5034188;28;20087;-59
2022/02/23 07:22:27;;;;;;;81.47;77.07;;;;;;;6.76;100.00;99189.84;5031283;28;20498;-59
2022/02/23 07:24:53;;;;;;;45.90;43.57;;;;;;;6.86;100.00;99199.25;5029335;28;20053;-58
2022/02/23 07:27:18;;;;;;;43.53;41.37;;;;;;;6.80;100.00;99206.84;5029318;28;20369;-58
2022/02/23 07:29:46;;;;;;;5.07;3.70;;;;;;;6.93;100.00;99220.50;5030000;28;20045;-58
2022/02/23 07:32:12;;;;;;;7.00;1.70;;;;;;;7.01;100.00;99211.19;5029758;28;20517;-57
2022/02/23 07:34:39;;;;;;;3.23;2.93;;;;;;;7.10;100.00;99228.22;5029737;28;20044;-58
2022/02/23 07:37:05;;;;;;;92.87;87.37;;;;;;;7.11;100.00;99235.03;5032129;28;20119;-56
2022/02/23 07:39:31;;;;;;;1.70;1.60;;;;;;;7.10;100.00;99241.81;5030556;28;20060;-59
2022/02/23 07:41:57;;;;;;;2.20;1.57;;;;;;;7.18;100.00;99247.81;5029321;28;20051;-57
2022/02/23 07:44:22;;;;;;;1.37;1.27;;;;;;;7.29;100.00;99258.06;5030756;28;20049;-56
2022/02/23 07:46:48;;;;;;;3.27;1.83;;;;;;;7.25;100.00;99257.22;5034396;28;20094;-58
2022/02/23 07:49:13;;;;;;;4.97;1.43;;;;;;;7.25;100.00;99258.91;5033634;28;20821;-58
2022/02/23 07:51:38;;;;;;;2.00;1.20;;;;;;;7.25;100.00;99280.16;5032295;28;20044;-59
2022/02/23 07:54:04;;;;;;;0.80;0.80;;;;;;;7.15;100.00;99270.75;5035831;28;20123;-56
2022/02/23 07:56:30;;;;;;;1.30;1.20;;;;;;;7.21;100.00;99277.59;5035358;28;20136;-58
2022/02/23 07:58:55;;;;;;;3.23;2.07;;;;;;;7.29;100.00;99275.91;5034653;28;20049;-59
2022/02/23 08:01:38;;;;;;;2.90;1.53;;;;;;;7.20;100.00;99279.28;5031391;28;20037;-58
2022/02/23 08:04:05;;;;;;;2.77;1.50;;;;;;;7.26;100.00;99268.22;5035217;28;20044;-59
2022/02/23 08:06:32;;;;;;;3.60;1.70;;;;;;;7.35;100.00;99289.53;5034973;28;20037;-58
2022/02/23 08:09:02;;;;;;;1.57;1.20;;;;;;;7.48;100.00;99284.47;5033011;28;20057;-58
2022/02/23 08:11:29;;;;;;;2.60;2.30;;;;;;;7.46;98.81;99291.28;5036356;28;20045;-57
2022/02/23 08:14:02;;;;;;;2.63;2.43;;;;;;;7.56;95.97;99298.13;5037966;28;20033;-57
2022/02/23 08:22:03;;;;;;;4.40;2.38;;;;;;;7.86;88.64;99302.47;5033807;28;20904;-59
2022/02/23 08:24:29;;;;;;;3.33;1.90;;;;;;;7.78;80.64;99307.56;5034689;28;20101;-59
2022/02/23 08:26:56;;;;;;;1.60;1.33;;;;;;;7.87;83.53;99314.38;5033487;28;20044;-58
2022/02/23 08:29:22;;;;;;;3.60;1.80;;;;;;;8.04;82.87;99328.91;5034573;28;20123;-59
2022/02/23 08:31:48;;;;;;;3.13;2.40;;;;;;;8.05;81.37;99329.75;5034887;28;20135;-56
2022/02/23 08:34:13;;;;;;;4.77;1.50;;;;;;;8.06;73.97;99331.47;5035641;28;20479;-57
2022/02/23 08:36:39;;;;;;;4.03;2.07;;;;;;;7.98;71.70;99330.56;5038110;28;20033;-55
2022/02/23 08:39:06;;;;;;;3.07;1.20;;;;;;;8.08;73.07;99345.94;5032836;28;20056;-58
2022/02/23 08:41:32;;;;;;;2.63;2.43;;;;;;;8.09;70.70;99352.75;5034086;28;20065;-57
2022/02/23 08:43:57;;;;;;;3.17;1.57;;;;;;;8.18;71.71;99344.25;5035800;28;20068;-56
2022/02/23 08:46:23;;;;;;;3.30;1.10;;;;;;;8.11;69.59;99351.03;5032304;28;20037;-57
2022/02/23 08:48:48;;;;;;;1.83;1.37;;;;;;;8.15;69.11;99347.66;5033088;28;20033;-56
2022/02/23 08:51:14;;;;;;;1.83;1.37;;;;;;;8.26;69.75;99366.41;5035330;28;20042;-57
2022/02/23 08:53:39;;;;;;;2.63;1.60;;;;;;;8.35;69.75;99372.44;5037071;28;20042;-58
2022/02/23 08:56:04;;;;;;;2.17;1.27;;;;;;;8.24;66.59;99352.78;5032648;28;20065;-56
2022/02/23 08:58:30;;;;;;;2.47;1.50;;;;;;;8.21;68.05;99378.31;5033495;28;20944;-56
2022/02/23 09:00:55;;;;;;;3.47;1.00;;;;;;;8.48;66.70;99374.16;5035321;28;20041;-54
2022/02/23 09:03:22;;;;;;;4.27;1.60;;;;;;;8.48;66.71;99382.69;5034175;28;20152;-56
2022/02/23 09:05:48;;;;;;;1.57;1.10;;;;;;;8.52;66.40;99375.84;5032573;28;20144;-55
2022/02/23 09:08:14;;;;;;;2.20;1.10;;;;;;;8.48;66.12;99387.78;5033827;28;20498;-56
2022/02/23 09:10:40;;;;;;;4.43;1.73;;;;;;;8.79;67.06;99375.84;5033783;28;20055;-57
2022/02/23 09:13:07;;;;;;;3.00;1.70;;;;;;;8.68;66.66;99395.47;5034524;28;20041;-56
2022/02/23 09:15:34;;;;;;;2.87;1.80;;;;;;;8.67;66.37;99399.72;5033387;28;20687;-57
2022/02/23 09:18:00;;;;;;;1.40;1.10;;;;;;;8.63;65.77;99398.00;5032375;28;20044;-56
2022/02/23 09:20:27;;;;;;;2.93;1.40;;;;;;;8.67;65.24;99401.41;5034934;28;20041;-57
2022/02/23 09:22:53;;;;;;;3.97;1.30;;;;;;;8.47;65.53;99403.97;5034443;28;20147;-58
2022/02/23 09:25:18;;;;;;;3.97;2.03;;;;;;;8.39;64.67;99417.56;5033363;28;20030;-56
2022/02/23 09:27:44;;;;;;;4.97;3.10;;;;;;;8.47;62.29;99415.88;5034696;28;20072;-57
2022/02/23 09:30:12;;;;;;;3.97;2.03;;;;;;;8.49;61.68;99419.28;5034301;28;20474;-57
2022/02/23 09:32:38;;;;;;;3.80;1.20;;;;;;;8.52;61.01;99425.28;5032364;28;20039;-58
2022/02/23 09:35:04;;;;;;;1.80;1.30;;;;;;;8.39;60.41;99407.34;5033123;28;20040;-58
2022/02/23 09:37:30;;;;;;;8.00;2.00;;;;;;;8.62;63.11;99423.56;5033813;28;20095;-57
2022/02/23 09:39:55;;;;;;;1.30;1.20;;;;;;;8.67;63.93;99439.75;5033640;28;20104;-57
2022/02/23 09:42:26;;;;;;;4.37;1.67;;;;;;;8.63;63.54;99441.47;5032422;28;20355;-57
2022/02/23 09:44:52;;;;;;;6.13;2.63;;;;;;;8.74;62.91;99432.97;5033671;28;20053;-55
2022/02/23 09:47:18;;;;;;;1.83;1.07;;;;;;;8.90;64.16;99445.78;5031956;28;20041;-57
2022/02/23 09:49:46;;;;;;;2.20;1.13;;;;;;;8.84;62.48;99453.41;5033399;28;20044;-57
2022/02/23 09:52:12;;;;;;;7.83;2.07;;;;;;;8.85;61.63;99454.28;5032549;28;20036;-58
2022/02/23 09:54:37;;;;;;;6.10;0.97;;;;;;;8.79;60.65;99462.78;5029622;28;20041;-57
2022/02/23 09:57:03;;;;;;;6.10;2.20;;;;;;;9.00;60.43;99461.94;5033094;28;20131;-55
2022/02/23 09:59:28;;;;;;;3.87;1.20;;;;;;;9.25;60.72;99470.50;5032190;28;20042;-57
2022/02/23 10:01:54;;;;;;;4.30;2.13;;;;;;;8.93;59.12;99479.00;5032092;28;20049;-56
2022/02/23 10:04:22;;;;;;;3.27;1.83;;;;;;;8.80;59.52;99461.94;5033170;28;20041;-55
2022/02/23 10:06:49;;;;;;;3.27;1.17;;;;;;;8.86;60.34;99469.63;5035556;28;20044;-56
2022/02/23 10:09:14;;;;;;;2.53;1.10;;;;;;;8.71;59.98;99467.03;5032847;28;20498;-57
2022/02/23 10:11:45;;;;;;;2.47;1.13;;;;;;;8.54;60.30;99484.03;5031346;28;20045;-56
2022/02/23 10:14:11;;;;;;;4.80;1.53;;;;;;;8.54;59.84;99473.81;5032270;28;20034;-56
2022/02/23 10:16:40;;;;;;;6.57;1.90;;;;;;;8.49;59.26;99481.47;5033884;28;20132;-56
2022/02/23 10:19:11;;;;;;;4.63;1.70;;;;;;;8.60;59.42;99489.16;5034377;28;20037;-57
2022/02/23 10:21:52;;;;;;;3.80;1.80;;;;;;;8.49;58.49;99483.16;5031778;28;20051;-58
2022/02/23 10:24:38;;;;;;;3.53;1.50;;;;;;;8.76;59.08;99474.72;5032819;28;20033;-57
2022/02/23 10:27:06;;;;;;;;;;;;;;;8.77;57.44;99487.50;5034410;28;20051;-58
2022/02/23 10:29:38;;;;;;;1.60;1.47;;;;;;;8.94;58.16;99478.16;5032783;28;19923;-58
2022/02/23 10:32:09;;;;;;;2.13;1.13;;;;;;;9.14;56.26;99486.69;5032930;28;20037;-58
2022/02/23 10:34:43;;;;;;;2.67;1.23;;;;;;;9.32;55.90;99487.56;5034291;28;20036;-58
2022/02/23 10:37:11;;;;;;;5.93;1.97;;;;;;;9.54;56.49;99500.34;5034001;28;20041;-58
2022/02/23 10:39:45;;;;;;;5.77;1.53;;;;;;;9.61;56.42;99478.13;5034082;28;20045;-58
2022/02/23 10:42:24;;;;;;;3.20;1.40;;;;;;;9.56;54.38;99464.50;5031023;28;20033;-58
2022/02/23 10:44:51;;;;;;;13.23;2.27;;;;;;;9.49;55.26;99485.84;5033707;28;20048;-58
2022/02/23 10:47:34;;;;;;;1.70;1.33;;;;;;;9.52;55.69;99475.59;5034007;28;20036;-57
2022/02/23 10:50:13;;;;;;;5.40;1.50;;;;;;;9.41;54.83;99482.44;5032635;28;20116;-57
2022/02/23 10:52:51;;;;;;;3.67;1.20;;;;;;;9.15;55.89;99474.75;5034117;28;20045;-59
2022/02/23 10:55:20;;;;;;;2.70;1.30;;;;;;;9.20;56.40;99472.22;5032975;28;20090;-56
2022/02/23 10:58:00;;;;;;;4.27;1.30;;;;;;;9.36;55.89;99477.31;5032874;28;20048;-56
2022/02/23 11:00:35;;;;;;;2.47;1.03;;;;;;;9.29;55.90;99477.31;5032398;28;20044;-58
2022/02/23 11:03:02;;;;;;;2.10;1.30;;;;;;;9.35;57.73;99477.31;5032425;28;20041;-57
2022/02/23 11:05:30;;;;;;;0.97;0.90;;;;;;;9.39;58.06;99477.31;5033715;28;20038;-58
2022/02/23 11:07:57;;;;;;;4.33;1.53;;;;;;;9.31;59.13;99478.16;5032604;28;20768;-58
2022/02/23 11:10:23;;;;;;;3.73;1.03;;;;;;;9.45;60.36;99484.13;5033388;28;20141;-58
2022/02/23 11:12:51;;;;;;;2.67;1.30;;;;;;;9.47;61.45;99477.28;5033966;28;20483;-56
2022/02/23 11:15:19;;;;;;;2.40;1.73;;;;;;;9.43;62.67;99481.56;5033252;28;20156;-54
2022/02/23 11:17:47;;;;;;;4.00;1.57;;;;;;;9.35;62.45;99470.47;5031928;28;20060;-54
2022/02/23 11:20:22;;;;;;;2.10;1.40;;;;;;;9.59;62.16;99470.44;5028970;28;20052;-53
2022/02/23 11:22:59;;;;;;;2.75;2.03;;;;;;;9.43;62.64;99471.31;5032861;28;20106;-58
2022/02/23 11:25:26;;;;;;;2.53;1.90;;;;;;;9.49;63.84;99461.09;5031650;28;20187;-60
2022/02/23 11:27:58;;;;;;;2.93;2.20;;;;;;;9.53;64.05;99462.78;5030827;28;20060;-57
2022/02/23 11:30:28;;;;;;;4.20;1.57;;;;;;;9.71;63.22;99479.84;5030879;28;20528;-59
2022/02/23 11:32:54;;;;;;;2.23;1.30;;;;;;;9.84;61.83;99467.84;5030898;28;20033;-58
2022/02/23 11:35:46;;;;;;;4.00;1.10;;;;;;;9.59;62.64;99492.63;5032110;28;20115;-58
2022/02/23 11:38:17;;;;;;;1.50;1.40;;;;;;;9.37;61.13;99460.25;5030823;28;20571;-59